createdAt,value
2019-04-05T00:00:39.295Z,32.10
2019-04-05T00:03:08.849Z,31.03
2019-04-05T00:05:38.449Z,34.00
2019-04-05T00:08:08.474Z,34.23
2019-04-05T00:10:37.969Z,34.07
2019-04-05T00:13:08.501Z,33.50
2019-04-05T00:15:38.133Z,38.53
2019-04-05T00:18:07.785Z,36.50
2019-04-05T00:20:37.759Z,33.20
2019-04-05T00:23:07.343Z,36.50
2019-04-05T00:25:37.109Z,34.60
2019-04-05T00:28:06.660Z,38.83
2019-04-05T00:30:36.211Z,37.63
2019-04-05T00:33:05.765Z,36.80
2019-04-05T00:35:35.334Z,35.20
2019-04-05T00:38:05.153Z,36.80
2019-04-05T00:40:34.771Z,40.90
2019-04-05T00:43:04.453Z,38.40
2019-04-05T00:45:33.979Z,37.67
2019-04-05T00:48:03.680Z,36.40
2019-04-05T00:50:33.588Z,33.40
2019-04-05T00:53:03.148Z,40.30
2019-04-05T00:55:32.694Z,38.53
2019-04-05T00:58:02.269Z,38.73
2019-04-05T01:00:31.852Z,38.77
2019-04-05T01:03:01.412Z,37.70
2019-04-05T01:05:31.231Z,40.57
2019-04-05T01:08:01.251Z,38.67
2019-04-05T01:10:31.377Z,42.40
2019-04-05T01:13:00.890Z,40.80
2019-04-05T01:15:40.198Z,38.40
2019-04-05T01:18:01.802Z,37.80
2019-04-05T01:20:35.733Z,41.63
2019-04-05T01:23:05.741Z,41.10
2019-04-05T01:25:36.365Z,40.50
2019-04-05T01:28:05.977Z,36.00
2019-04-05T01:30:35.975Z,38.63
2019-04-05T01:33:05.712Z,39.47
2019-04-05T01:35:35.693Z,38.20
2019-04-05T01:38:05.381Z,38.57
2019-04-05T01:40:37.071Z,38.13
2019-04-05T01:43:06.900Z,37.50
2019-04-05T01:45:36.791Z,37.67
2019-04-05T01:48:06.274Z,35.60
2019-04-05T01:50:36.243Z,37.77
2019-04-05T01:53:05.837Z,36.80
2019-04-05T01:55:35.568Z,38.47
2019-04-05T01:58:05.411Z,38.67
2019-04-05T02:00:35.191Z,37.13
2019-04-05T02:03:05.401Z,36.13
2019-04-05T02:05:35.445Z,32.47
2019-04-05T02:08:05.435Z,31.37
2019-04-05T02:10:35.551Z,35.70
2019-04-05T02:13:05.627Z,32.83
2019-04-05T02:15:36.941Z,31.93
2019-04-05T02:18:06.783Z,35.87
2019-04-05T02:20:36.671Z,34.17
2019-04-05T02:23:06.362Z,33.23
2019-04-05T02:25:35.977Z,33.07
2019-04-05T02:28:05.511Z,31.47
2019-04-05T02:30:35.084Z,36.17
2019-04-05T02:33:04.736Z,36.13
2019-04-05T02:35:34.290Z,34.87
2019-04-05T02:38:03.834Z,33.90
2019-04-05T02:40:35.243Z,30.53
2019-04-05T02:43:05.593Z,30.37
2019-04-05T02:45:37.532Z,33.13
2019-04-05T02:48:10.332Z,29.67
2019-04-05T02:50:43.575Z,31.43
2019-04-05T02:53:15.042Z,30.17
2019-04-05T02:55:45.463Z,29.93
2019-04-05T02:58:15.592Z,29.63
2019-04-05T03:00:45.861Z,29.83
2019-04-05T03:03:16.748Z,31.77
2019-04-05T03:05:48.072Z,28.87
2019-04-05T03:08:18.654Z,30.07
2019-04-05T03:11:11.065Z,26.03
2019-04-05T03:13:54.422Z,25.77
2019-04-05T03:16:40.259Z,28.67
2019-04-05T03:19:04.299Z,29.40
2019-04-05T03:21:35.912Z,27.43
2019-04-05T03:24:07.812Z,28.83
2019-04-05T03:26:40.788Z,28.00
2019-04-05T03:29:11.345Z,30.43
2019-04-05T03:31:40.975Z,27.90
2019-04-05T03:34:11.069Z,25.97
2019-04-05T03:36:40.966Z,24.70
2019-04-05T03:39:11.162Z,28.07
2019-04-05T03:41:59.673Z,26.10
2019-04-05T03:44:29.103Z,22.33
2019-04-05T03:46:59.034Z,26.60
2019-04-05T03:49:29.564Z,27.07
2019-04-05T03:51:59.071Z,22.20
2019-04-05T03:54:29.260Z,25.83
2019-04-05T03:56:59.156Z,22.40
2019-04-05T03:59:28.733Z,23.63
2019-04-05T04:01:58.141Z,23.67
2019-04-05T04:04:27.853Z,25.90
2019-04-05T04:06:57.656Z,27.40
2019-04-05T04:09:28.351Z,27.17
2019-04-05T04:11:57.961Z,24.43
2019-04-05T04:14:28.102Z,27.50
2019-04-05T04:17:11.564Z,29.50
2019-04-05T04:19:29.943Z,25.83
2019-04-05T04:22:24.892Z,27.30
2019-04-05T04:24:54.392Z,34.03
2019-04-05T04:27:23.950Z,32.43
2019-04-05T04:29:54.237Z,34.07
2019-04-05T04:32:24.922Z,33.03
2019-04-05T04:34:54.859Z,35.03
2019-04-05T04:37:24.683Z,34.57
2019-04-05T04:39:54.773Z,35.37
2019-04-05T04:42:24.999Z,32.83
2019-04-05T04:44:54.821Z,33.37
2019-04-05T04:47:26.719Z,32.57
2019-04-05T04:49:57.849Z,37.20
2019-04-05T04:52:31.362Z,35.53
2019-04-05T04:55:00.964Z,35.53
2019-04-05T04:57:30.600Z,36.17
2019-04-05T05:00:00.137Z,34.60
2019-04-05T05:02:29.870Z,38.13
2019-04-05T05:04:59.901Z,35.43
2019-04-05T05:07:29.563Z,36.30
2019-04-05T05:09:59.468Z,33.10
2019-04-05T05:12:28.994Z,34.77
2019-04-05T05:14:58.728Z,31.33
2019-04-05T05:17:37.704Z,31.90
2019-04-05T05:19:59.562Z,32.43
2019-04-05T05:22:29.826Z,33.87
2019-04-05T05:25:00.780Z,28.70
2019-04-05T05:27:30.715Z,28.70
2019-04-05T05:30:00.249Z,27.40
2019-04-05T05:32:30.030Z,29.83
2019-04-05T05:35:02.153Z,26.53
2019-04-05T05:37:32.802Z,29.67
2019-04-05T05:40:02.002Z,25.10
2019-04-05T05:42:31.465Z,22.43
2019-04-05T05:45:01.532Z,23.87
2019-04-05T05:47:31.058Z,22.50
2019-04-05T05:50:00.479Z,22.07
2019-04-05T05:52:30.060Z,17.70
2019-04-05T05:54:59.509Z,19.30
2019-04-05T05:57:28.899Z,22.77
2019-04-05T05:59:58.483Z,19.27
2019-04-05T06:02:29.580Z,17.67
2019-04-05T06:04:58.990Z,18.93
2019-04-05T06:07:28.445Z,21.93
2019-04-05T06:09:57.842Z,17.00
2019-04-05T06:12:27.883Z,19.50
2019-04-05T06:14:57.554Z,20.23
2019-04-05T06:17:27.041Z,17.50
2019-04-05T06:19:56.693Z,18.33
2019-04-05T06:22:26.109Z,19.03
2019-04-05T06:24:55.859Z,20.83
2019-04-05T06:27:25.465Z,18.60
2019-04-05T06:29:54.923Z,16.30
2019-04-05T06:32:24.399Z,19.07
2019-04-05T06:34:54.095Z,22.17
2019-04-05T06:37:23.790Z,21.20
2019-04-05T06:39:53.684Z,15.47
2019-04-05T06:42:23.541Z,17.07
2019-04-05T06:44:53.290Z,18.10
2019-04-05T06:47:23.005Z,18.27
2019-04-05T06:49:52.691Z,17.30
2019-04-05T06:52:22.666Z,17.27
2019-04-05T06:54:52.531Z,21.93
2019-04-05T06:57:22.265Z,18.03
2019-04-05T06:59:51.797Z,17.87
2019-04-05T07:02:21.554Z,17.43
2019-04-05T07:04:50.919Z,17.40
2019-04-05T07:07:20.869Z,17.83
2019-04-05T07:09:50.685Z,18.30
2019-04-05T07:12:20.756Z,19.03
2019-04-05T07:14:50.612Z,16.87
2019-04-05T07:17:22.993Z,19.63
2019-04-05T07:19:53.055Z,19.70
2019-04-05T07:22:36.868Z,16.70
2019-04-05T07:24:54.035Z,16.30
2019-04-05T07:27:23.505Z,17.93
2019-04-05T07:29:53.083Z,18.67
2019-04-05T07:32:22.738Z,17.97
2019-04-05T07:34:52.428Z,18.20
2019-04-05T07:37:22.105Z,20.30
2019-04-05T07:39:51.541Z,17.27
2019-04-05T07:42:21.025Z,16.60
2019-04-05T07:44:50.586Z,18.03
2019-04-05T07:47:20.003Z,19.57
2019-04-05T07:49:49.383Z,17.57
2019-04-05T07:52:18.736Z,16.83
2019-04-05T07:54:48.183Z,15.80
2019-04-05T07:57:17.749Z,20.20
2019-04-05T07:59:47.224Z,19.87
2019-04-05T08:02:17.577Z,17.70
2019-04-05T08:04:46.969Z,17.37
2019-04-05T08:07:18.353Z,18.20
2019-04-05T08:09:48.681Z,15.93
2019-04-05T08:12:18.811Z,18.53
2019-04-05T08:14:49.022Z,16.30
2019-04-05T08:17:18.478Z,14.83
2019-04-05T08:19:48.223Z,18.50
2019-04-05T08:22:18.060Z,18.67
2019-04-05T08:24:47.467Z,16.27
2019-04-05T08:27:17.271Z,19.00
2019-04-05T08:29:46.692Z,21.67
2019-04-05T08:32:16.104Z,19.17
2019-04-05T08:34:45.504Z,17.43
2019-04-05T08:37:14.987Z,18.63
2019-04-05T08:39:44.371Z,18.00
2019-04-05T08:42:13.847Z,20.00
2019-04-05T08:44:43.297Z,17.57
2019-04-05T08:47:12.726Z,16.90
2019-04-05T08:49:42.129Z,18.90
2019-04-05T08:52:11.511Z,17.63
2019-04-05T08:54:40.885Z,17.30
2019-04-05T08:57:10.297Z,20.00
2019-04-05T08:59:39.790Z,17.63
2019-04-05T09:02:09.336Z,18.07
2019-04-05T09:04:38.764Z,19.30
2019-04-05T09:07:08.177Z,20.50
2019-04-05T09:09:37.641Z,17.90
2019-04-05T09:12:07.052Z,19.30
2019-04-05T09:14:36.760Z,19.60
2019-04-05T09:17:06.138Z,21.17
2019-04-05T09:19:35.871Z,20.73
2019-04-05T09:22:05.392Z,18.77
2019-04-05T09:24:35.239Z,23.90
2019-04-05T09:27:04.891Z,19.60
2019-04-05T09:29:34.281Z,21.07
2019-04-05T09:32:03.759Z,19.57
2019-04-05T09:34:33.204Z,23.40
2019-04-05T09:37:02.717Z,20.53
2019-04-05T09:39:32.087Z,20.63
2019-04-05T09:42:01.589Z,24.03
2019-04-05T09:44:30.999Z,22.17
2019-04-05T09:47:00.872Z,20.87
2019-04-05T09:49:36.601Z,22.87
2019-04-05T09:52:01.911Z,23.73
2019-04-05T09:54:31.326Z,24.60
2019-04-05T09:57:00.685Z,22.57
2019-04-05T09:59:30.099Z,23.53
2019-04-05T10:01:59.505Z,25.63
2019-04-05T10:04:31.237Z,21.23
2019-04-05T10:07:00.087Z,21.23
2019-04-05T10:09:29.423Z,21.97
2019-04-05T10:11:58.833Z,20.87
2019-04-05T10:14:28.578Z,20.57
2019-04-05T10:16:58.003Z,19.57
2019-04-05T10:19:27.463Z,23.30
2019-04-05T10:21:56.989Z,19.27
2019-04-05T10:24:26.374Z,23.43
2019-04-05T10:26:55.786Z,20.40
2019-04-05T10:29:25.475Z,21.13
2019-04-05T10:31:54.861Z,23.10
2019-04-05T10:34:24.295Z,20.17
2019-04-05T10:36:53.763Z,24.23
2019-04-05T10:39:23.148Z,26.57
2019-04-05T10:42:02.701Z,18.43
2019-04-05T10:44:24.352Z,18.80
2019-04-05T10:46:54.239Z,20.47
2019-04-05T10:49:24.090Z,21.10
2019-04-05T10:51:53.840Z,20.47
2019-04-05T10:54:23.370Z,20.03
2019-04-05T10:56:53.260Z,20.83
2019-04-05T10:59:23.280Z,23.30
2019-04-05T11:01:53.360Z,19.40
2019-04-05T11:04:23.203Z,20.53
2019-04-05T11:06:53.100Z,16.47
2019-04-05T11:09:23.262Z,18.67
2019-04-05T11:11:53.713Z,20.70
2019-04-05T11:14:24.488Z,20.33
2019-04-05T11:16:58.592Z,17.07
2019-04-05T11:19:26.230Z,25.13
2019-04-05T11:21:56.249Z,17.93
2019-04-05T11:24:26.570Z,20.83
2019-04-05T11:26:56.149Z,25.13
2019-04-05T11:29:26.154Z,20.10
2019-04-05T11:31:57.258Z,21.73
2019-04-05T11:34:26.683Z,25.60
2019-04-05T11:36:56.555Z,21.73
2019-04-05T11:39:26.744Z,21.70
2019-04-05T11:41:59.376Z,24.30
2019-04-05T11:44:29.770Z,22.23
2019-04-05T11:46:59.536Z,21.83
2019-04-05T11:49:30.460Z,23.07
2019-04-05T11:51:59.872Z,25.80
2019-04-05T11:54:29.315Z,29.10
2019-04-05T11:56:59.052Z,21.73
2019-04-05T11:59:28.531Z,23.07
2019-04-05T12:02:04.125Z,22.67
2019-04-05T12:04:33.903Z,26.27
2019-04-05T12:07:03.310Z,20.60
2019-04-05T12:09:32.854Z,24.00
2019-04-05T12:12:02.268Z,24.00
2019-04-05T12:14:31.864Z,26.77
2019-04-05T12:17:01.236Z,24.47
2019-04-05T12:19:32.878Z,25.37
2019-04-05T12:22:04.517Z,26.03
2019-04-05T12:24:33.908Z,20.53
2019-04-05T12:27:04.830Z,26.13
2019-04-05T12:29:35.149Z,24.17
2019-04-05T12:32:04.772Z,26.30
2019-04-05T12:34:34.878Z,24.93
2019-04-05T12:37:04.360Z,24.30
2019-04-05T12:39:36.419Z,28.07
2019-04-05T12:42:05.632Z,24.30
2019-04-05T12:44:35.487Z,28.83
2019-04-05T12:47:06.414Z,19.50
2019-04-05T12:49:36.009Z,26.10
2019-04-05T12:52:05.836Z,25.03
2019-04-05T12:54:35.264Z,25.90
2019-04-05T12:57:04.958Z,24.53
2019-04-05T12:59:34.827Z,25.00
2019-04-05T13:02:04.614Z,21.57
2019-04-05T13:04:34.037Z,24.57
2019-04-05T13:07:03.438Z,22.30
2019-04-05T13:09:32.844Z,22.97
2019-04-05T13:12:02.490Z,22.57
2019-04-05T13:14:31.927Z,22.10
2019-04-05T13:17:02.684Z,27.80
2019-04-05T13:19:32.212Z,28.63
2019-04-05T13:22:02.771Z,29.43
2019-04-05T13:24:33.168Z,22.73
2019-04-05T13:27:02.602Z,27.57
2019-04-05T13:29:31.994Z,27.07
2019-04-05T13:32:01.778Z,30.33
2019-04-05T13:34:31.223Z,30.20
2019-04-05T13:37:01.487Z,27.57
2019-04-05T13:39:31.356Z,26.63
2019-04-05T13:42:01.797Z,32.10
2019-04-05T13:44:32.458Z,27.87
2019-04-05T13:47:02.229Z,30.30
2019-04-05T13:49:31.759Z,31.03
2019-04-05T13:52:01.328Z,28.80
2019-04-05T13:54:30.747Z,29.97
2019-04-05T13:57:00.290Z,33.00
2019-04-05T13:59:29.846Z,30.40
2019-04-05T14:02:06.060Z,27.47
2019-04-05T14:04:30.426Z,30.10
2019-04-05T14:06:59.918Z,30.90
2019-04-05T14:09:31.574Z,31.07
2019-04-05T14:12:00.858Z,28.37
2019-04-05T14:14:30.358Z,32.47
2019-04-05T14:16:59.752Z,34.67
2019-04-05T14:19:29.180Z,32.47
2019-04-05T14:22:08.464Z,27.10
2019-04-05T14:24:29.790Z,36.43
2019-04-05T14:27:02.962Z,29.83
2019-04-05T14:29:33.206Z,32.20
2019-04-05T14:32:19.412Z,30.93
2019-04-05T14:34:32.921Z,34.17
2019-04-05T14:37:02.523Z,27.73
2019-04-05T14:39:31.995Z,32.17
2019-04-05T14:42:09.549Z,29.20
2019-04-05T14:44:32.572Z,32.37
2019-04-05T14:47:02.092Z,34.03
2019-04-05T14:49:32.904Z,28.50
2019-04-05T14:52:02.714Z,37.57
2019-04-05T14:54:32.460Z,31.40
2019-04-05T14:57:05.456Z,34.10
2019-04-05T14:59:33.034Z,35.93
2019-04-05T15:02:02.447Z,29.27
2019-04-05T15:04:31.960Z,35.63
2019-04-05T15:07:01.672Z,27.87
2019-04-05T15:09:31.232Z,28.80
2019-04-05T15:12:00.952Z,32.90
2019-04-05T15:14:30.548Z,39.67
2019-04-05T15:17:00.178Z,37.10
2019-04-05T15:19:29.818Z,35.90
2019-04-05T15:22:05.552Z,30.20
2019-04-05T15:24:31.151Z,34.43
2019-04-05T15:27:00.800Z,34.97
2019-04-05T15:29:30.286Z,37.13
2019-04-05T15:32:00.367Z,30.90
2019-04-05T15:34:29.931Z,36.87
2019-04-05T15:37:01.400Z,32.90
2019-04-05T15:39:30.876Z,36.17
2019-04-05T15:42:01.347Z,37.83
2019-04-05T15:44:31.704Z,30.23
2019-04-05T15:47:01.298Z,37.80
2019-04-05T15:49:30.966Z,38.80
2019-04-05T15:52:01.073Z,34.53
2019-04-05T15:54:33.181Z,35.83
2019-04-05T15:57:03.777Z,36.63
2019-04-05T15:59:33.908Z,35.47
2019-04-05T16:02:04.296Z,33.97
2019-04-05T16:04:34.871Z,36.67
2019-04-05T16:07:04.397Z,33.50
2019-04-05T16:09:34.412Z,43.00
2019-04-05T16:12:04.030Z,28.80
2019-04-05T16:14:33.358Z,32.03
2019-04-05T16:17:03.135Z,38.33
2019-04-05T16:19:32.445Z,32.73
2019-04-05T16:22:01.935Z,37.00
2019-04-05T16:24:31.340Z,30.33
2019-04-05T16:27:00.791Z,45.30
2019-04-05T16:29:30.406Z,22.87
2019-04-05T16:31:59.857Z,32.77
2019-04-05T16:34:29.583Z,26.40
2019-04-05T16:36:58.978Z,33.60
2019-04-05T16:39:28.644Z,31.57
2019-04-05T16:41:58.138Z,31.23
2019-04-05T16:44:27.959Z,30.20
2019-04-05T16:46:57.359Z,31.57
2019-04-05T16:49:26.792Z,30.97
2019-04-05T16:51:56.585Z,24.67
2019-04-05T16:54:26.045Z,28.57
2019-04-05T16:56:55.480Z,31.63
2019-04-05T16:59:24.917Z,26.17
2019-04-05T17:01:56.708Z,26.60
2019-04-05T17:04:25.385Z,26.03
2019-04-05T17:06:54.795Z,26.73
2019-04-05T17:09:24.189Z,29.80
2019-04-05T17:11:53.625Z,28.87
2019-04-05T17:14:23.284Z,30.40
2019-04-05T17:16:52.883Z,29.37
2019-04-05T17:19:22.351Z,27.90
2019-04-05T17:21:51.817Z,30.37
2019-04-05T17:24:21.443Z,29.40
2019-04-05T17:26:50.836Z,30.70
2019-04-05T17:29:22.055Z,28.13
2019-04-05T17:31:51.443Z,25.87
2019-04-05T17:34:20.840Z,27.50
2019-04-05T17:36:50.252Z,29.43
2019-04-05T17:39:20.609Z,26.33
2019-04-05T17:41:50.079Z,30.37
2019-04-05T17:44:19.494Z,30.80
2019-04-05T17:46:48.851Z,24.30
2019-04-05T17:49:18.237Z,33.07
2019-04-05T17:51:47.685Z,29.30
2019-04-05T17:54:17.196Z,30.37
2019-04-05T17:56:47.117Z,31.80
2019-04-05T17:59:17.613Z,29.97
2019-04-05T18:01:47.586Z,25.50
2019-04-05T18:04:17.532Z,36.80
2019-04-05T18:06:48.002Z,31.67
2019-04-05T18:09:17.959Z,30.50
2019-04-05T18:11:47.609Z,31.37
2019-04-05T18:14:17.032Z,27.60
2019-04-05T18:16:46.691Z,29.93
2019-04-05T18:19:16.179Z,30.63
2019-04-05T18:21:45.933Z,39.13
2019-04-05T18:24:18.672Z,32.97
2019-04-05T18:26:48.193Z,24.03
2019-04-05T18:29:17.626Z,28.17
2019-04-05T18:31:47.065Z,26.40
2019-04-05T18:34:19.961Z,30.60
2019-04-05T18:36:50.618Z,30.10
2019-04-05T18:39:20.024Z,27.37
2019-04-05T18:41:49.453Z,29.07
2019-04-05T18:44:18.891Z,29.57
2019-04-05T18:46:48.323Z,27.90
2019-04-05T18:49:17.806Z,30.13
2019-04-05T18:51:47.355Z,28.53
2019-04-05T18:54:17.078Z,28.67
2019-04-05T18:56:46.895Z,33.83
2019-04-05T18:59:16.315Z,29.30
2019-04-05T19:01:45.623Z,32.93
2019-04-05T19:04:15.091Z,33.20
2019-04-05T19:06:44.520Z,29.40
2019-04-05T19:09:13.961Z,32.17
2019-04-05T19:11:43.358Z,36.50
2019-04-05T19:14:12.821Z,32.33
2019-04-05T19:16:42.651Z,29.30
2019-04-05T19:19:12.150Z,33.37
2019-04-05T19:21:41.766Z,28.73
2019-04-05T19:24:11.094Z,27.77
2019-04-05T19:26:40.576Z,30.17
2019-04-05T19:29:09.991Z,33.07
2019-04-05T19:49:18.614Z,37.57
2019-04-05T19:51:48.021Z,38.33
2019-04-05T19:54:17.525Z,30.00
2019-04-05T19:56:47.147Z,35.37
2019-04-05T19:59:16.645Z,40.57
2019-04-05T20:01:46.041Z,28.47
2019-04-05T20:04:15.464Z,32.20
2019-04-05T20:06:44.879Z,35.10
2019-04-05T20:09:14.324Z,32.77
2019-04-05T20:11:43.716Z,36.53
2019-04-05T20:14:13.160Z,35.33
2019-04-05T20:19:25.468Z,33.00
2019-04-05T20:21:55.150Z,33.10
2019-04-05T20:24:24.983Z,32.93
2019-04-05T20:26:54.450Z,38.87
2019-04-05T20:29:23.887Z,35.97
2019-04-05T20:31:53.853Z,37.90
2019-04-05T20:34:23.520Z,38.83
2019-04-05T20:36:56.032Z,33.70
2019-04-05T20:39:25.440Z,38.87
2019-04-05T20:41:54.881Z,34.90
2019-04-05T20:44:24.330Z,43.77
2019-04-05T20:46:54.133Z,34.03
2019-04-05T20:49:23.937Z,38.90
2019-04-05T20:51:53.367Z,38.00
2019-04-05T20:54:24.778Z,44.80
2019-04-05T20:56:54.000Z,39.10
2019-04-05T20:59:24.299Z,36.00
2019-04-05T21:01:53.681Z,43.93
2019-04-05T21:04:23.139Z,45.37
2019-04-05T21:06:52.496Z,45.03
2019-04-05T21:09:22.052Z,47.03
2019-04-05T21:12:10.643Z,43.60
2019-04-05T21:14:40.193Z,41.03
2019-04-05T21:17:09.579Z,47.40
2019-04-05T21:19:39.041Z,38.00
2019-04-05T21:22:08.483Z,40.97
2019-04-05T21:24:37.935Z,40.97
2019-04-05T21:27:07.429Z,42.93
2019-04-05T21:29:36.979Z,42.10
2019-04-05T21:32:06.481Z,50.30
2019-04-05T21:34:35.966Z,46.20
2019-04-05T21:37:05.772Z,38.57
2019-04-05T21:39:35.443Z,40.73
2019-04-05T21:42:05.222Z,40.53
2019-04-05T21:44:34.674Z,41.20
2019-04-05T21:47:04.144Z,40.87
2019-04-05T21:49:34.155Z,38.63
2019-04-05T21:52:03.635Z,33.43
2019-04-05T21:54:33.434Z,39.37
2019-04-05T21:57:03.387Z,40.37
2019-04-05T21:59:32.977Z,44.33
2019-04-05T22:02:02.724Z,36.60
2019-04-05T22:04:32.184Z,39.30
2019-04-05T22:07:01.616Z,37.73
2019-04-05T22:09:31.448Z,43.60
2019-04-05T22:12:00.803Z,45.67
2019-04-05T22:14:30.264Z,41.47
2019-04-05T22:16:59.726Z,44.97
2019-04-05T22:19:29.275Z,46.23
2019-04-05T22:22:00.108Z,51.73
2019-04-05T22:24:30.300Z,52.67
2019-04-05T22:26:59.692Z,50.83
2019-04-05T22:29:29.184Z,67.23
2019-04-05T22:31:58.719Z,62.33
2019-04-05T22:34:28.186Z,54.80
2019-04-05T22:36:57.639Z,58.13
2019-04-05T22:39:27.120Z,56.27
2019-04-05T22:41:56.553Z,60.23
2019-04-05T22:44:29.266Z,55.63
2019-04-05T22:46:57.112Z,63.00
2019-04-05T22:49:26.681Z,58.27
2019-04-05T22:51:56.126Z,63.27
2019-04-05T22:54:44.638Z,64.57
2019-04-05T22:57:14.125Z,69.57
2019-04-05T22:59:43.585Z,59.57
2019-04-05T23:02:13.040Z,57.17
2019-04-05T23:04:42.517Z,67.17
2019-04-05T23:07:11.952Z,60.53
2019-04-05T23:09:41.419Z,60.40
2019-04-05T23:12:10.863Z,68.97
2019-04-05T23:14:40.359Z,68.43
2019-04-05T23:17:09.913Z,70.33
2019-04-05T23:19:39.396Z,64.00
2019-04-05T23:22:08.869Z,73.30
2019-04-05T23:24:38.359Z,64.30
2019-04-05T23:27:07.838Z,69.80
2019-04-05T23:29:37.266Z,71.50
2019-04-05T23:32:06.913Z,67.97
2019-04-05T23:34:36.399Z,75.63
2019-04-05T23:37:05.836Z,72.50
2019-04-05T23:39:35.334Z,68.07
2019-04-05T23:42:04.739Z,77.47
2019-04-05T23:44:34.343Z,73.40
2019-04-05T23:47:03.825Z,76.97
2019-04-05T23:49:33.385Z,83.57
2019-04-05T23:52:02.863Z,80.83
2019-04-05T23:54:32.266Z,77.47
2019-04-05T23:57:01.874Z,82.07
2019-04-05T23:59:31.315Z,73.87
